Flight Track Log - Related Links

Times and Time Zones

All times are in EDT time to prevent confusion due to time zone crossing. See the FIN666 flight status page for this flight to view local times or setup timezone preferences in your user account.

Time Position Orientation Groundspeed Altitude Reporting Facility
EDT Latitude Longitude Course Direction KTS MPH feet Rate Location/Type
Wed 07:34:00 AM 56.0189 13.4911 49° Northeast  Level Estimated
Wed 07:35:00 AM 56.0985 13.6603 50° Northeast  Level Estimated
Wed 07:36:00 AM 56.1803 13.8355 50° Northeast  Level Estimated
Wed 07:37:00 AM 56.2618 14.0114 50° Northeast  Level Estimated
Wed 07:38:00 AM 56.3431 14.1881 50° Northeast  Level Estimated
Wed 07:39:00 AM 56.4242 14.3656 50° Northeast  Level Estimated
Wed 07:40:00 AM 56.5050 14.5438 51° Northeast  Level Estimated
Wed 07:41:00 AM 56.5855 14.7228 51° Northeast  Level Estimated
Wed 07:42:00 AM 56.6658 14.9025 51° Northeast  Level Estimated
Wed 07:43:00 AM 56.7458 15.0830 51° Northeast  Level Estimated
Wed 07:44:00 AM 56.8256 15.2643 51° Northeast  Level Estimated
Wed 07:45:00 AM 56.9050 15.4464 51° Northeast  Level Estimated
Wed 07:46:00 AM 56.9843 15.6292 51° Northeast  Level Estimated
Wed 07:47:00 AM 57.0632 15.8128 52° Northeast  Level Estimated
Wed 07:48:00 AM 57.1419 15.9972 52° Northeast  Level Estimated
Wed 07:49:00 AM 57.2203 16.1824 52° Northeast  Level Estimated
Wed 07:50:00 AM 57.2985 16.3683 52° Northeast  Level Estimated
Wed 07:51:00 AM 57.3764 16.5551 52° Northeast  Level Estimated
Wed 07:52:00 AM 57.4539 16.7426 52° Northeast  Level Estimated
Wed 07:53:00 AM 57.5313 16.9310 53° Northeast  Level Estimated
Wed 07:54:00 AM 57.6083 17.1201 53° Northeast  Level Estimated
Wed 07:55:00 AM 57.6850 17.3100 53° Northeast  Level Estimated
Wed 07:56:00 AM 57.7615 17.5008 53° Northeast  Level Estimated
Wed 07:57:00 AM 57.8377 17.6923 53° Northeast  Level Estimated
Wed 07:58:00 AM 57.9136 17.8847 53° Northeast  Level Estimated
Wed 07:59:00 AM 57.9892 18.0779 54° Northeast  Level Estimated
Wed 08:00:00 AM 58.0645 18.2719 54° Northeast  Level Estimated
Wed 08:01:00 AM 58.1395 18.4667 54° Northeast  Level Estimated
Wed 08:02:00 AM 58.2142 18.6623 54° Northeast  Level Estimated
Wed 08:03:00 AM 58.2886 18.8587 54° Northeast  Level Estimated
Wed 08:04:00 AM 58.3627 19.0560 54° Northeast  Level Estimated
Wed 08:05:00 AM 58.4365 19.2541 55° Northeast  Level Estimated
Wed 08:06:00 AM 58.5100 19.4531 55° Northeast  Level Estimated
Wed 08:07:00 AM 58.5831 19.6528 55° Northeast  Level Estimated
Wed 08:08:00 AM 58.6560 19.8535 55° Northeast  Level Estimated
Wed 08:09:00 AM 58.7286 20.0549 55° Northeast  Level Estimated
Wed 08:10:00 AM 58.8008 20.2572 55° Northeast  Level Estimated
Wed 08:11:00 AM 58.8727 20.4603 56° Northeast  Level Estimated
Wed 08:12:00 AM 58.9443 20.6643 56° Northeast  Level Estimated
Wed 08:13:00 AM 59.0156 20.8691 56° Northeast  Level Estimated
Wed 08:14:00 AM 59.0844 21.0684 56° Northeast  Level Estimated
Wed 08:15:00 AM 59.1529 21.2685 56° Northeast  Level Estimated
Wed 08:16:00 AM 59.2210 21.4695 56° Northeast  Level Estimated
Wed 08:17:00 AM 59.2889 21.6712 57° Northeast  Level Estimated
Wed 08:18:00 AM 59.3564 21.8737 57° Northeast  Level Estimated
Wed 08:19:00 AM 59.4236 22.0770 57° Northeast  Level Estimated
Wed 08:20:00 AM 59.4906 22.2812 57° Northeast  Level Estimated
Wed 08:21:00 AM 59.5572 22.4861 57° Northeast  Level Estimated
Wed 08:22:00 AM 59.6234 22.6919 57° Northeast  Level Estimated
Wed 08:23:00 AM 59.6894 22.8985 58° Northeast  Level Estimated
Wed 08:24:00 AM 59.7550 23.1059 58° Northeast  Level Estimated
Wed 08:25:00 AM 59.8203 23.3141 58° Northeast  Level Estimated
Wed 08:26:00 AM 59.8852 23.5231 58° Northeast  Level Estimated
Wed 08:27:00 AM 59.9499 23.7329 58° Northeast  Level Estimated
Wed 08:28:00 AM 60.0141 23.9436 59° Northeast  Level Estimated
Wed 08:29:00 AM 60.0781 24.1550 59° Northeast  Level Estimated
Wed 08:30:00 AM 60.1417 24.3673 59° Northeast  Level Estimated
Wed 08:31:00 AM 60.2050 24.5804 59° Northeast  Level Estimated
Wed 08:32:00 AM 60.2679 24.7944 59° Northeast  Level Estimated
Wed 08:33:00 AM 60.3172 24.9633 59° Northeast  Level Estimated
Wed 08:34:00 AM 60.3172 24.9633 37° Northeast  Level Estimated
Wed 08:35:00 AM 60.3172 24.9633 37° Northeast  Level Estimated
Wed 08:36:00 AM 60.3172 24.9633 37° Northeast  Level Estimated
Wed 08:37:00 AM 60.3172 24.9633 37° Northeast  Level Estimated
Wed 08:38:00 AM 60.3172 24.9633 37° Northeast  Level Estimated
Wed 08:39:00 AM 60.3172 24.9633 37° Northeast  Level Estimated
Wed 08:40:00 AM 60.3172 24.9633 37° Northeast  Level Estimated
Wed 08:41:00 AM 60.3172 24.9633 37° Northeast  Level Estimated
Wed 08:42:00 AM 60.3172 24.9633 37° Northeast  Level Estimated
Wed 08:43:00 AM 60.3172 24.9633 37° Northeast  Level Estimated
Wed 08:44:00 AM 60.3172 24.9633 37° Northeast  Level Estimated
Wed 08:45:00 AM 60.3172 24.9633 37° Northeast  Level Estimated

Login

Don't have an account? Register now (free) for customized features, flight alerts, and more!